sensor_id;sensor_type;location;lat;lon;timestamp;pressure;altitude;pressure_sealevel;temperature;humidity
72896;BME280;61036;53.224;6.554;2023-03-23T00:00:51;100075.56;;;10.96;100.00
72896;BME280;61036;53.224;6.554;2023-03-23T00:03:20;100066.91;;;10.92;100.00
72896;BME280;61036;53.224;6.554;2023-03-23T00:05:47;100072.31;;;10.92;100.00
72896;BME280;61036;53.224;6.554;2023-03-23T00:08:19;100074.94;;;11.13;100.00
72896;BME280;61036;53.224;6.554;2023-03-23T00:10:51;100076.53;;;11.26;100.00
72896;BME280;61036;53.224;6.554;2023-03-23T00:13:19;100080.66;;;11.30;100.00
72896;BME280;61036;53.224;6.554;2023-03-23T00:15:46;100083.91;;;11.33;100.00
72896;BME280;61036;53.224;6.554;2023-03-23T00:18:15;100088.47;;;11.33;100.00
72896;BME280;61036;53.224;6.554;2023-03-23T00:20:51;100089.75;;;11.38;100.00
72896;BME280;61036;53.224;6.554;2023-03-23T00:23:18;100101.59;;;11.07;100.00
72896;BME280;61036;53.224;6.554;2023-03-23T00:25:46;100097.38;;;11.14;100.00
72896;BME280;61036;53.224;6.554;2023-03-23T00:28:12;100092.63;;;10.96;100.00
72896;BME280;61036;53.224;6.554;2023-03-23T00:30:39;100092.63;;;10.96;100.00
72896;BME280;61036;53.224;6.554;2023-03-23T00:33:04;100076.03;;;10.70;100.00
72896;BME280;61036;53.224;6.554;2023-03-23T00:35:30;100095.56;;;10.93;100.00
72896;BME280;61036;53.224;6.554;2023-03-23T00:37:56;100074.72;;;10.95;100.00
72896;BME280;61036;53.224;6.554;2023-03-23T00:40:25;100085.84;;;10.71;100.00
72896;BME280;61036;53.224;6.554;2023-03-23T00:42:52;100089.34;;;10.93;100.00
72896;BME280;61036;53.224;6.554;2023-03-23T00:45:17;100067.66;;;11.04;100.00
72896;BME280;61036;53.224;6.554;2023-03-23T00:47:43;100047.25;;;11.21;100.00
72896;BME280;61036;53.224;6.554;2023-03-23T00:50:12;100076.06;;;11.20;100.00
72896;BME280;61036;53.224;6.554;2023-03-23T00:52:39;100081.66;;;11.29;100.00
72896;BME280;61036;53.224;6.554;2023-03-23T00:55:06;100080.91;;;11.27;100.00
72896;BME280;61036;53.224;6.554;2023-03-23T00:57:32;100075.56;;;10.96;100.00
72896;BME280;61036;53.224;6.554;2023-03-23T00:59:57;100075.03;;;11.02;100.00
72896;BME280;61036;53.224;6.554;2023-03-23T01:02:23;100090.94;;;11.05;100.00
72896;BME280;61036;53.224;6.554;2023-03-23T01:04:51;100086.41;;;11.15;100.00
72896;BME280;61036;53.224;6.554;2023-03-23T01:07:20;100072.81;;;11.27;100.00
72896;BME280;61036;53.224;6.554;2023-03-23T01:09:48;100062.22;;;10.94;100.00
72896;BME280;61036;53.224;6.554;2023-03-23T01:12:13;100058.13;;;11.00;100.00
72896;BME280;61036;53.224;6.554;2023-03-23T01:14:41;100051.75;;;11.01;100.00
72896;BME280;61036;53.224;6.554;2023-03-23T01:17:07;100038.47;;;10.88;100.00
72896;BME280;61036;53.224;6.554;2023-03-23T01:19:34;100021.16;;;10.91;100.00
72896;BME280;61036;53.224;6.554;2023-03-23T01:22:00;100016.47;;;10.83;100.00
72896;BME280;61036;53.224;6.554;2023-03-23T01:24:25;100001.63;;;10.68;100.00
72896;BME280;61036;53.224;6.554;2023-03-23T01:26:51;99992.44;;;10.70;100.00
72896;BME280;61036;53.224;6.554;2023-03-23T01:29:16;99986.88;;;10.62;100.00
72896;BME280;61036;53.224;6.554;2023-03-23T01:31:42;99987.28;;;10.58;100.00
72896;BME280;61036;53.224;6.554;2023-03-23T01:34:08;99986.63;;;10.65;100.00
72896;BME280;61036;53.224;6.554;2023-03-23T01:36:36;99992.16;;;10.73;100.00
72896;BME280;61036;53.224;6.554;2023-03-23T01:39:04;99990.94;;;10.87;100.00
72896;BME280;61036;53.224;6.554;2023-03-23T01:41:32;99983.28;;;10.92;100.00
72896;BME280;61036;53.224;6.554;2023-03-23T01:46:35;99976.72;;;10.95;100.00
72896;BME280;61036;53.224;6.554;2023-03-23T01:49:08;99978.63;;;11.04;100.00
72896;BME280;61036;53.224;6.554;2023-03-23T01:51:37;99983.31;;;11.12;100.00
72896;BME280;61036;53.224;6.554;2023-03-23T01:54:07;99980.22;;;11.16;100.00
72896;BME280;61036;53.224;6.554;2023-03-23T01:56:42;99972.53;;;11.21;100.00
72896;BME280;61036;53.224;6.554;2023-03-23T01:59:11;99980.78;;;11.10;100.00
72896;BME280;61036;53.224;6.554;2023-03-23T02:01:39;99966.25;;;11.02;100.00
72896;BME280;61036;53.224;6.554;2023-03-23T02:04:14;99958.47;;;11.18;100.00
72896;BME280;61036;53.224;6.554;2023-03-23T02:06:42;99961.16;;;11.08;100.00
72896;BME280;61036;53.224;6.554;2023-03-23T02:09:14;99968.41;;;11.27;100.00
72896;BME280;61036;53.224;6.554;2023-03-23T02:11:44;99954.19;;;11.25;100.00
72896;BME280;61036;53.224;6.554;2023-03-23T02:14:10;99935.06;;;11.28;100.00
72896;BME280;61036;53.224;6.554;2023-03-23T02:16:44;99956.03;;;11.25;100.00
72896;BME280;61036;53.224;6.554;2023-03-23T02:22:42;99947.81;;;11.45;100.00
72896;BME280;61036;53.224;6.554;2023-03-23T02:28:09;99944.13;;;11.47;100.00
72896;BME280;61036;53.224;6.554;2023-03-23T02:31:13;99944.13;;;11.56;100.00
72896;BME280;61036;53.224;6.554;2023-03-23T02:33:48;99952.38;;;11.45;100.00
72896;BME280;61036;53.224;6.554;2023-03-23T02:39:00;99941.56;;;11.55;100.00
72896;BME280;61036;53.224;6.554;2023-03-23T02:41:32;99932.47;;;11.46;100.00
72896;BME280;61036;53.224;6.554;2023-03-23T02:44:03;99929.34;;;11.51;100.00
72896;BME280;61036;53.224;6.554;2023-03-23T02:46:30;99929.91;;;11.44;100.00
72896;BME280;61036;53.224;6.554;2023-03-23T02:48:57;99919.97;;;11.45;100.00
72896;BME280;61036;53.224;6.554;2023-03-23T02:51:24;99916.69;;;11.51;100.00
72896;BME280;61036;53.224;6.554;2023-03-23T02:53:53;99898.53;;;11.43;100.00
72896;BME280;61036;53.224;6.554;2023-03-23T02:56:22;99912.31;;;11.50;100.00
72896;BME280;61036;53.224;6.554;2023-03-23T02:58:48;99907.50;;;11.34;100.00
72896;BME280;61036;53.224;6.554;2023-03-23T03:03:52;99908.75;;;11.40;100.00
72896;BME280;61036;53.224;6.554;2023-03-23T03:11:43;99901.34;;;11.61;100.00
72896;BME280;61036;53.224;6.554;2023-03-23T03:14:31;99907.03;;;11.58;100.00
72896;BME280;61036;53.224;6.554;2023-03-23T03:20:03;99900.06;;;11.46;100.00
72896;BME280;61036;53.224;6.554;2023-03-23T03:22:35;99898.66;;;11.42;100.00
72896;BME280;61036;53.224;6.554;2023-03-23T03:25:10;99886.13;;;11.60;100.00
72896;BME280;61036;53.224;6.554;2023-03-23T03:27:40;99884.16;;;11.53;100.00
72896;BME280;61036;53.224;6.554;2023-03-23T03:30:16;99886.16;;;11.51;100.00
72896;BME280;61036;53.224;6.554;2023-03-23T03:32:47;99879.03;;;11.59;100.00
72896;BME280;61036;53.224;6.554;2023-03-23T03:35:16;99868.81;;;11.53;100.00
72896;BME280;61036;53.224;6.554;2023-03-23T03:37:43;99875.94;;;11.44;100.00
72896;BME280;61036;53.224;6.554;2023-03-23T03:40:12;99877.44;;;11.66;100.00
72896;BME280;61036;53.224;6.554;2023-03-23T03:42:41;99877.50;;;11.47;100.00
72896;BME280;61036;53.224;6.554;2023-03-23T03:45:10;99879.75;;;11.52;100.00
72896;BME280;61036;53.224;6.554;2023-03-23T03:47:37;99885.00;;;11.53;100.00
72896;BME280;61036;53.224;6.554;2023-03-23T03:50:03;99891.41;;;11.42;100.00
72896;BME280;61036;53.224;6.554;2023-03-23T03:52:30;99897.53;;;11.44;100.00
72896;BME280;61036;53.224;6.554;2023-03-23T03:54:55;99900.47;;;11.61;100.00
72896;BME280;61036;53.224;6.554;2023-03-23T03:57:21;99891.13;;;11.55;100.00
72896;BME280;61036;53.224;6.554;2023-03-23T04:00:04;99900.50;;;11.51;100.00
72896;BME280;61036;53.224;6.554;2023-03-23T04:02:41;99894.16;;;11.13;100.00
72896;BME280;61036;53.224;6.554;2023-03-23T04:05:07;99893.00;;;11.26;100.00
72896;BME280;61036;53.224;6.554;2023-03-23T04:07:34;99885.31;;;11.21;100.00
72896;BME280;61036;53.224;6.554;2023-03-23T04:10:04;99888.31;;;11.08;100.00
72896;BME280;61036;53.224;6.554;2023-03-23T04:12:31;99887.59;;;10.96;100.00
72896;BME280;61036;53.224;6.554;2023-03-23T04:14:57;99885.44;;;10.81;100.00
72896;BME280;61036;53.224;6.554;2023-03-23T04:17:31;99898.38;;;10.77;100.00
72896;BME280;61036;53.224;6.554;2023-03-23T04:19:56;99897.38;;;10.78;100.00
72896;BME280;61036;53.224;6.554;2023-03-23T04:22:24;99905.59;;;10.76;100.00
72896;BME280;61036;53.224;6.554;2023-03-23T04:24:59;99901.63;;;10.90;100.00
72896;BME280;61036;53.224;6.554;2023-03-23T04:27:26;99897.81;;;10.93;100.00
72896;BME280;61036;53.224;6.554;2023-03-23T04:29:57;99898.38;;;10.87;100.00
72896;BME280;61036;53.224;6.554;2023-03-23T04:32:42;99917.25;;;10.77;100.00
72896;BME280;61036;53.224;6.554;2023-03-23T04:35:11;99932.16;;;10.91;100.00
72896;BME280;61036;53.224;6.554;2023-03-23T04:37:42;99912.16;;;10.43;100.00
72896;BME280;61036;53.224;6.554;2023-03-23T04:40:10;99920.19;;;10.64;100.00
72896;BME280;61036;53.224;6.554;2023-03-23T04:42:42;99904.44;;;10.69;100.00
72896;BME280;61036;53.224;6.554;2023-03-23T04:45:28;99897.16;;;10.50;100.00
72896;BME280;61036;53.224;6.554;2023-03-23T04:47:54;99898.03;;;10.61;100.00
72896;BME280;61036;53.224;6.554;2023-03-23T04:50:29;99913.13;;;10.83;100.00
72896;BME280;61036;53.224;6.554;2023-03-23T04:53:03;99904.72;;;10.57;100.00
72896;BME280;61036;53.224;6.554;2023-03-23T04:55:34;99923.22;;;10.81;100.00
72896;BME280;61036;53.224;6.554;2023-03-23T04:58:06;99901.16;;;10.56;100.00
72896;BME280;61036;53.224;6.554;2023-03-23T05:00:37;99910.47;;;10.42;100.00
72896;BME280;61036;53.224;6.554;2023-03-23T05:03:04;99905.34;;;10.29;100.00
72896;BME280;61036;53.224;6.554;2023-03-23T05:05:31;99911.47;;;10.41;100.00
72896;BME280;61036;53.224;6.554;2023-03-23T05:08:01;99905.28;;;10.60;100.00
72896;BME280;61036;53.224;6.554;2023-03-23T05:10:30;99917.88;;;10.50;100.00
72896;BME280;61036;53.224;6.554;2023-03-23T05:13:02;99912.53;;;10.60;100.00
72896;BME280;61036;53.224;6.554;2023-03-23T05:15:28;99890.78;;;10.61;100.00
72896;BME280;61036;53.224;6.554;2023-03-23T05:17:55;99888.94;;;10.62;100.00
72896;BME280;61036;53.224;6.554;2023-03-23T05:20:21;99898.28;;;10.48;100.00
72896;BME280;61036;53.224;6.554;2023-03-23T05:22:49;99910.97;;;10.76;100.00
72896;BME280;61036;53.224;6.554;2023-03-23T05:25:19;99920.31;;;10.53;100.00
72896;BME280;61036;53.224;6.554;2023-03-23T05:27:49;99920.34;;;10.72;100.00
72896;BME280;61036;53.224;6.554;2023-03-23T05:30:50;99929.16;;;10.74;100.00
72896;BME280;61036;53.224;6.554;2023-03-23T05:33:17;99931.88;;;10.84;100.00
72896;BME280;61036;53.224;6.554;2023-03-23T05:36:03;99937.09;;;10.86;100.00
72896;BME280;61036;53.224;6.554;2023-03-23T05:38:37;99936.97;;;10.78;100.00
72896;BME280;61036;53.224;6.554;2023-03-23T05:41:05;99947.50;;;10.90;100.00
72896;BME280;61036;53.224;6.554;2023-03-23T05:43:37;99946.53;;;11.01;100.00
72896;BME280;61036;53.224;6.554;2023-03-23T05:46:19;99955.47;;;11.02;100.00
72896;BME280;61036;53.224;6.554;2023-03-23T05:48:46;99944.78;;;10.81;100.00
72896;BME280;61036;53.224;6.554;2023-03-23T05:51:15;99961.63;;;10.63;100.00
72896;BME280;61036;53.224;6.554;2023-03-23T05:53:43;99952.53;;;10.64;100.00
72896;BME280;61036;53.224;6.554;2023-03-23T05:56:10;99965.63;;;10.79;100.00
72896;BME280;61036;53.224;6.554;2023-03-23T05:59:04;99957.66;;;10.67;100.00
72896;BME280;61036;53.224;6.554;2023-03-23T06:01:33;99950.59;;;10.86;100.00
72896;BME280;61036;53.224;6.554;2023-03-23T06:03:59;99960.13;;;10.80;100.00
72896;BME280;61036;53.224;6.554;2023-03-23T06:06:33;99948.91;;;10.85;100.00
72896;BME280;61036;53.224;6.554;2023-03-23T06:09:05;99955.13;;;10.75;100.00
72896;BME280;61036;53.224;6.554;2023-03-23T06:11:42;99960.63;;;10.64;100.00
72896;BME280;61036;53.224;6.554;2023-03-23T06:14:25;99962.91;;;10.69;100.00
72896;BME280;61036;53.224;6.554;2023-03-23T06:16:51;99964.06;;;10.76;100.00
72896;BME280;61036;53.224;6.554;2023-03-23T06:19:17;99974.44;;;10.81;100.00
72896;BME280;61036;53.224;6.554;2023-03-23T06:21:54;99973.75;;;10.98;100.00
72896;BME280;61036;53.224;6.554;2023-03-23T06:24:38;99977.81;;;10.73;100.00
72896;BME280;61036;53.224;6.554;2023-03-23T06:27:03;99985.38;;;10.89;100.00
72896;BME280;61036;53.224;6.554;2023-03-23T06:29:29;99982.91;;;11.16;100.00
72896;BME280;61036;53.224;6.554;2023-03-23T06:32:00;99992.97;;;11.24;100.00
72896;BME280;61036;53.224;6.554;2023-03-23T06:34:28;99994.16;;;10.71;100.00
72896;BME280;61036;53.224;6.554;2023-03-23T06:36:58;99998.91;;;10.98;100.00
72896;BME280;61036;53.224;6.554;2023-03-23T06:39:31;100011.97;;;10.93;100.00
72896;BME280;61036;53.224;6.554;2023-03-23T06:42:18;99998.44;;;10.84;100.00
72896;BME280;61036;53.224;6.554;2023-03-23T06:44:50;100006.53;;;10.84;100.00
72896;BME280;61036;53.224;6.554;2023-03-23T06:47:16;99999.31;;;10.94;100.00
72896;BME280;61036;53.224;6.554;2023-03-23T06:49:45;100011.34;;;10.49;100.00
72896;BME280;61036;53.224;6.554;2023-03-23T06:52:20;100011.22;;;10.51;100.00
72896;BME280;61036;53.224;6.554;2023-03-23T06:54:52;100022.13;;;10.49;100.00
72896;BME280;61036;53.224;6.554;2023-03-23T06:57:19;100022.88;;;10.51;100.00
72896;BME280;61036;53.224;6.554;2023-03-23T06:59:46;100036.56;;;10.18;100.00
72896;BME280;61036;53.224;6.554;2023-03-23T07:02:13;100023.22;;;10.37;100.00
72896;BME280;61036;53.224;6.554;2023-03-23T07:04:44;100022.66;;;10.22;100.00
72896;BME280;61036;53.224;6.554;2023-03-23T07:07:16;100030.34;;;10.38;100.00
72896;BME280;61036;53.224;6.554;2023-03-23T07:10:09;100022.28;;;10.79;100.00
72896;BME280;61036;53.224;6.554;2023-03-23T07:12:36;100017.19;;;10.85;100.00
72896;BME280;61036;53.224;6.554;2023-03-23T07:15:04;100015.94;;;10.99;100.00
72896;BME280;61036;53.224;6.554;2023-03-23T07:17:31;100015.50;;;10.94;100.00
72896;BME280;61036;53.224;6.554;2023-03-23T07:20:15;100029.59;;;10.67;100.00
72896;BME280;61036;53.224;6.554;2023-03-23T07:22:41;100036.53;;;10.60;100.00
72896;BME280;61036;53.224;6.554;2023-03-23T07:25:18;100034.69;;;11.01;100.00
72896;BME280;61036;53.224;6.554;2023-03-23T07:27:50;100044.78;;;10.98;100.00
72896;BME280;61036;53.224;6.554;2023-03-23T07:30:17;100045.19;;;10.94;100.00
72896;BME280;61036;53.224;6.554;2023-03-23T07:32:42;100042.34;;;10.95;100.00
72896;BME280;61036;53.224;6.554;2023-03-23T07:35:08;100043.72;;;11.40;100.00
72896;BME280;61036;53.224;6.554;2023-03-23T07:37:52;100050.44;;;11.75;100.00
72896;BME280;61036;53.224;6.554;2023-03-23T07:40:18;100047.91;;;11.93;100.00
72896;BME280;61036;53.224;6.554;2023-03-23T07:42:53;100047.84;;;12.31;100.00
72896;BME280;61036;53.224;6.554;2023-03-23T07:45:28;100043.03;;;12.06;100.00
72896;BME280;61036;53.224;6.554;2023-03-23T07:47:55;100031.66;;;13.87;100.00
72896;BME280;61036;53.224;6.554;2023-03-23T07:50:22;100044.13;;;12.42;100.00
72896;BME280;61036;53.224;6.554;2023-03-23T07:52:51;100042.31;;;12.23;100.00
72896;BME280;61036;53.224;6.554;2023-03-23T07:55:19;100057.09;;;12.29;100.00
72896;BME280;61036;53.224;6.554;2023-03-23T07:57:53;100060.66;;;12.29;100.00
72896;BME280;61036;53.224;6.554;2023-03-23T08:00:20;100059.50;;;12.42;100.00
72896;BME280;61036;53.224;6.554;2023-03-23T08:02:54;100056.28;;;12.66;100.00
72896;BME280;61036;53.224;6.554;2023-03-23T08:05:47;100065.25;;;12.76;100.00
72896;BME280;61036;53.224;6.554;2023-03-23T08:08:12;100057.81;;;12.21;100.00
72896;BME280;61036;53.224;6.554;2023-03-23T08:10:57;100074.25;;;12.57;100.00
72896;BME280;61036;53.224;6.554;2023-03-23T08:13:42;100072.78;;;11.96;100.00
72896;BME280;61036;53.224;6.554;2023-03-23T08:16:32;100075.34;;;12.07;100.00
72896;BME280;61036;53.224;6.554;2023-03-23T08:19:32;100084.69;;;12.89;100.00
72896;BME280;61036;53.224;6.554;2023-03-23T08:22:30;100068.41;;;12.99;100.00
72896;BME280;61036;53.224;6.554;2023-03-23T08:25:23;100059.00;;;13.03;100.00
72896;BME280;61036;53.224;6.554;2023-03-23T08:28:22;100067.91;;;13.13;100.00
72896;BME280;61036;53.224;6.554;2023-03-23T08:31:11;100079.00;;;13.47;100.00
72896;BME280;61036;53.224;6.554;2023-03-23T08:34:06;100072.88;;;13.27;100.00
72896;BME280;61036;53.224;6.554;2023-03-23T08:36:58;100088.97;;;13.47;100.00
72896;BME280;61036;53.224;6.554;2023-03-23T08:39:44;100070.22;;;13.99;100.00
72896;BME280;61036;53.224;6.554;2023-03-23T08:42:42;100072.69;;;17.67;100.00
72896;BME280;61036;53.224;6.554;2023-03-23T08:45:27;100067.81;;;16.26;100.00
72896;BME280;61036;53.224;6.554;2023-03-23T08:47:53;100070.34;;;16.77;100.00
72896;BME280;61036;53.224;6.554;2023-03-23T08:50:37;100077.41;;;14.52;100.00
72896;BME280;61036;53.224;6.554;2023-03-23T08:53:13;100066.81;;;16.19;100.00
72896;BME280;61036;53.224;6.554;2023-03-23T08:55:38;100076.00;;;16.34;100.00
72896;BME280;61036;53.224;6.554;2023-03-23T08:58:23;100067.66;;;15.87;100.00
72896;BME280;61036;53.224;6.554;2023-03-23T09:00:55;100066.69;;;15.03;100.00
72896;BME280;61036;53.224;6.554;2023-03-23T09:03:28;100068.53;;;15.45;100.00
72896;BME280;61036;53.224;6.554;2023-03-23T09:06:16;100082.28;;;14.67;100.00
72896;BME280;61036;53.224;6.554;2023-03-23T09:08:44;100080.47;;;14.75;100.00
72896;BME280;61036;53.224;6.554;2023-03-23T09:11:10;100073.66;;;14.27;100.00
72896;BME280;61036;53.224;6.554;2023-03-23T09:13:38;100080.66;;;14.12;100.00
72896;BME280;61036;53.224;6.554;2023-03-23T09:16:04;100083.38;;;13.76;100.00
72896;BME280;61036;53.224;6.554;2023-03-23T09:18:31;100098.13;;;13.46;100.00
72896;BME280;61036;53.224;6.554;2023-03-23T09:21:00;100104.28;;;13.66;100.00
72896;BME280;61036;53.224;6.554;2023-03-23T09:23:27;100095.97;;;14.91;100.00
72896;BME280;61036;53.224;6.554;2023-03-23T09:25:52;100103.69;;;13.44;100.00
72896;BME280;61036;53.224;6.554;2023-03-23T09:28:19;100098.66;;;13.49;100.00
72896;BME280;61036;53.224;6.554;2023-03-23T09:30:45;100093.75;;;13.35;100.00
72896;BME280;61036;53.224;6.554;2023-03-23T09:33:13;100104.78;;;13.14;100.00
72896;BME280;61036;53.224;6.554;2023-03-23T09:35:39;100093.59;;;13.82;100.00
72896;BME280;61036;53.224;6.554;2023-03-23T09:38:08;100103.34;;;13.75;100.00
72896;BME280;61036;53.224;6.554;2023-03-23T09:40:48;100109.69;;;14.19;100.00
72896;BME280;61036;53.224;6.554;2023-03-23T09:46:17;100110.25;;;13.04;100.00
72896;BME280;61036;53.224;6.554;2023-03-23T09:48:51;100125.47;;;13.25;100.00
72896;BME280;61036;53.224;6.554;2023-03-23T09:56:46;100110.16;;;14.15;100.00
72896;BME280;61036;53.224;6.554;2023-03-23T09:59:19;100102.84;;;16.37;100.00
72896;BME280;61036;53.224;6.554;2023-03-23T10:01:48;100114.34;;;17.83;100.00
72896;BME280;61036;53.224;6.554;2023-03-23T10:07:13;100103.97;;;22.33;100.00
72896;BME280;61036;53.224;6.554;2023-03-23T10:09:41;100098.00;;;22.16;93.40
72896;BME280;61036;53.224;6.554;2023-03-23T10:12:14;100099.72;;;22.90;82.68
72896;BME280;61036;53.224;6.554;2023-03-23T10:14:58;100098.94;;;19.63;99.71
72896;BME280;61036;53.224;6.554;2023-03-23T10:17:33;100097.53;;;21.03;95.78
72896;BME280;61036;53.224;6.554;2023-03-23T10:20:21;100099.06;;;18.43;100.00
72896;BME280;61036;53.224;6.554;2023-03-23T10:22:57;100116.06;;;17.76;100.00
72896;BME280;61036;53.224;6.554;2023-03-23T10:25:28;100115.31;;;17.20;100.00
72896;BME280;61036;53.224;6.554;2023-03-23T10:28:04;100123.41;;;16.07;100.00
72896;BME280;61036;53.224;6.554;2023-03-23T10:30:36;100118.00;;;14.62;100.00
72896;BME280;61036;53.224;6.554;2023-03-23T10:33:11;100126.84;;;14.64;100.00
72896;BME280;61036;53.224;6.554;2023-03-23T10:35:48;100129.88;;;14.61;100.00
72896;BME280;61036;53.224;6.554;2023-03-23T10:38:33;100141.44;;;13.91;100.00
72896;BME280;61036;53.224;6.554;2023-03-23T10:41:04;100141.06;;;14.04;100.00
72896;BME280;61036;53.224;6.554;2023-03-23T10:43:32;100143.97;;;13.20;100.00
72896;BME280;61036;53.224;6.554;2023-03-23T10:46:02;100147.28;;;13.97;100.00
72896;BME280;61036;53.224;6.554;2023-03-23T10:48:36;100149.94;;;13.23;100.00
72896;BME280;61036;53.224;6.554;2023-03-23T10:51:09;100145.63;;;13.86;100.00
72896;BME280;61036;53.224;6.554;2023-03-23T10:53:49;100138.50;;;13.85;100.00
72896;BME280;61036;53.224;6.554;2023-03-23T10:56:35;100143.25;;;14.01;100.00
72896;BME280;61036;53.224;6.554;2023-03-23T10:59:18;100150.00;;;14.32;100.00
72896;BME280;61036;53.224;6.554;2023-03-23T11:01:51;100158.56;;;14.10;100.00
72896;BME280;61036;53.224;6.554;2023-03-23T11:04:18;100160.44;;;13.91;100.00
72896;BME280;61036;53.224;6.554;2023-03-23T11:06:59;100144.38;;;14.70;100.00
72896;BME280;61036;53.224;6.554;2023-03-23T11:09:40;100136.97;;;14.18;100.00
72896;BME280;61036;53.224;6.554;2023-03-23T11:12:18;100147.88;;;14.44;100.00
72896;BME280;61036;53.224;6.554;2023-03-23T11:14:44;100149.50;;;14.37;100.00
72896;BME280;61036;53.224;6.554;2023-03-23T11:17:26;100149.50;;;14.55;100.00
72896;BME280;61036;53.224;6.554;2023-03-23T11:19:53;100143.38;;;14.97;100.00
72896;BME280;61036;53.224;6.554;2023-03-23T11:22:28;100144.13;;;15.92;100.00
72896;BME280;61036;53.224;6.554;2023-03-23T11:24:55;100137.88;;;16.16;100.00
72896;BME280;61036;53.224;6.554;2023-03-23T11:27:24;100138.16;;;15.80;100.00
72896;BME280;61036;53.224;6.554;2023-03-23T11:29:59;100148.22;;;15.53;100.00
72896;BME280;61036;53.224;6.554;2023-03-23T11:32:28;100148.31;;;15.70;100.00
72896;BME280;61036;53.224;6.554;2023-03-23T11:34:59;100152.44;;;15.48;100.00
72896;BME280;61036;53.224;6.554;2023-03-23T11:37:41;100155.25;;;14.52;100.00
72896;BME280;61036;53.224;6.554;2023-03-23T11:42:42;100153.38;;;14.52;100.00
72896;BME280;61036;53.224;6.554;2023-03-23T11:45:21;100154.78;;;15.35;100.00
72896;BME280;61036;53.224;6.554;2023-03-23T11:53:45;100165.81;;;15.07;100.00
72896;BME280;61036;53.224;6.554;2023-03-23T11:56:25;100164.63;;;15.36;100.00
72896;BME280;61036;53.224;6.554;2023-03-23T11:58:54;100159.25;;;15.18;100.00
72896;BME280;61036;53.224;6.554;2023-03-23T12:07:03;100169.78;;;15.55;100.00
72896;BME280;61036;53.224;6.554;2023-03-23T12:20:32;100170.38;;;15.32;100.00
72896;BME280;61036;53.224;6.554;2023-03-23T12:39:42;100186.34;;;14.57;100.00
72896;BME280;61036;53.224;6.554;2023-03-23T12:45:14;100183.97;;;15.06;100.00
72896;BME280;61036;53.224;6.554;2023-03-23T12:47:57;100178.34;;;15.00;100.00
72896;BME280;61036;53.224;6.554;2023-03-23T12:50:42;100194.22;;;15.47;100.00
72896;BME280;61036;53.224;6.554;2023-03-23T12:53:22;100177.81;;;14.96;100.00
72896;BME280;61036;53.224;6.554;2023-03-23T12:56:26;100176.13;;;15.29;100.00
72896;BME280;61036;53.224;6.554;2023-03-23T12:59:17;100176.72;;;14.89;100.00
72896;BME280;61036;53.224;6.554;2023-03-23T13:01:50;100186.69;;;14.80;100.00
72896;BME280;61036;53.224;6.554;2023-03-23T13:04:27;100181.19;;;14.72;100.00
72896;BME280;61036;53.224;6.554;2023-03-23T13:06:55;100180.72;;;14.77;100.00
72896;BME280;61036;53.224;6.554;2023-03-23T13:12:14;100184.34;;;14.85;100.00
72896;BME280;61036;53.224;6.554;2023-03-23T13:17:57;100167.72;;;14.89;100.00
72896;BME280;61036;53.224;6.554;2023-03-23T13:25:54;100157.97;;;14.96;100.00
72896;BME280;61036;53.224;6.554;2023-03-23T13:28:24;100165.31;;;15.38;100.00
72896;BME280;61036;53.224;6.554;2023-03-23T13:30:58;100160.81;;;14.68;100.00
72896;BME280;61036;53.224;6.554;2023-03-23T13:33:24;100167.41;;;14.30;100.00
72896;BME280;61036;53.224;6.554;2023-03-23T13:35:50;100181.06;;;14.02;100.00
72896;BME280;61036;53.224;6.554;2023-03-23T13:38:26;100167.72;;;14.89;100.00
72896;BME280;61036;53.224;6.554;2023-03-23T13:40:54;100164.91;;;14.72;100.00
72896;BME280;61036;53.224;6.554;2023-03-23T13:43:32;100164.50;;;15.11;100.00
72896;BME280;61036;53.224;6.554;2023-03-23T13:48:51;100162.94;;;14.82;100.00
72896;BME280;61036;53.224;6.554;2023-03-23T13:54:31;100168.78;;;14.70;100.00
72896;BME280;61036;53.224;6.554;2023-03-23T13:57:00;100180.03;;;14.21;100.00
72896;BME280;61036;53.224;6.554;2023-03-23T14:01:57;100166.56;;;15.17;100.00
72896;BME280;61036;53.224;6.554;2023-03-23T14:04:41;100180.16;;;15.17;100.00
72896;BME280;61036;53.224;6.554;2023-03-23T14:07:11;100161.25;;;15.84;100.00
72896;BME280;61036;53.224;6.554;2023-03-23T14:09:42;100170.44;;;15.41;100.00
72896;BME280;61036;53.224;6.554;2023-03-23T14:12:19;100172.03;;;14.73;100.00
72896;BME280;61036;53.224;6.554;2023-03-23T14:14:49;100178.13;;;14.93;100.00
72896;BME280;61036;53.224;6.554;2023-03-23T14:17:25;100169.84;;;15.29;100.00
72896;BME280;61036;53.224;6.554;2023-03-23T14:19:53;100182.34;;;15.14;100.00
72896;BME280;61036;53.224;6.554;2023-03-23T14:22:33;100166.00;;;15.05;100.00
72896;BME280;61036;53.224;6.554;2023-03-23T14:25:15;100161.13;;;14.65;100.00
72896;BME280;61036;53.224;6.554;2023-03-23T14:27:42;100180.22;;;14.99;100.00
72896;BME280;61036;53.224;6.554;2023-03-23T14:30:13;100176.94;;;14.70;100.00
72896;BME280;61036;53.224;6.554;2023-03-23T14:32:39;100184.28;;;15.03;100.00
72896;BME280;61036;53.224;6.554;2023-03-23T14:37:39;100179.63;;;15.14;100.00
72896;BME280;61036;53.224;6.554;2023-03-23T14:40:05;100188.50;;;15.24;100.00
72896;BME280;61036;53.224;6.554;2023-03-23T14:42:34;100180.41;;;15.32;100.00
72896;BME280;61036;53.224;6.554;2023-03-23T14:45:01;100178.19;;;15.01;100.00
72896;BME280;61036;53.224;6.554;2023-03-23T14:47:32;100174.22;;;14.70;100.00
72896;BME280;61036;53.224;6.554;2023-03-23T14:50:00;100170.97;;;15.18;100.00